sensor_id;sensor_type;location;lat;lon;timestamp;temperature;humidity
44747;DHT22;30472;49.490;10.972;2023-06-04T00:00:36;11.00;99.90
44747;DHT22;30472;49.490;10.972;2023-06-04T00:03:01;10.90;99.90
44747;DHT22;30472;49.490;10.972;2023-06-04T00:05:27;10.80;99.90
44747;DHT22;30472;49.490;10.972;2023-06-04T00:07:53;10.70;99.90
44747;DHT22;30472;49.490;10.972;2023-06-04T00:10:18;10.70;99.90
44747;DHT22;30472;49.490;10.972;2023-06-04T00:12:44;10.60;99.90
44747;DHT22;30472;49.490;10.972;2023-06-04T00:15:10;10.50;99.90
44747;DHT22;30472;49.490;10.972;2023-06-04T00:17:35;10.50;99.90
44747;DHT22;30472;49.490;10.972;2023-06-04T00:20:01;10.40;99.90
44747;DHT22;30472;49.490;10.972;2023-06-04T00:22:27;10.40;99.90
44747;DHT22;30472;49.490;10.972;2023-06-04T00:24:52;10.30;99.90
44747;DHT22;30472;49.490;10.972;2023-06-04T00:27:18;10.30;99.90
44747;DHT22;30472;49.490;10.972;2023-06-04T00:29:43;10.20;99.90
44747;DHT22;30472;49.490;10.972;2023-06-04T00:32:09;10.10;99.90
44747;DHT22;30472;49.490;10.972;2023-06-04T00:34:35;10.10;99.90
44747;DHT22;30472;49.490;10.972;2023-06-04T00:37:00;10.10;99.90
44747;DHT22;30472;49.490;10.972;2023-06-04T00:39:29;10.00;99.90
44747;DHT22;30472;49.490;10.972;2023-06-04T00:41:55;10.00;99.90
44747;DHT22;30472;49.490;10.972;2023-06-04T00:44:20;9.90;99.90
44747;DHT22;30472;49.490;10.972;2023-06-04T00:46:49;9.90;99.90
44747;DHT22;30472;49.490;10.972;2023-06-04T00:49:14;9.90;99.90
44747;DHT22;30472;49.490;10.972;2023-06-04T00:51:40;9.80;99.90
44747;DHT22;30472;49.490;10.972;2023-06-04T00:54:07;9.80;99.90
44747;DHT22;30472;49.490;10.972;2023-06-04T00:56:37;9.70;99.90
44747;DHT22;30472;49.490;10.972;2023-06-04T00:59:05;9.70;99.90
44747;DHT22;30472;49.490;10.972;2023-06-04T01:04:09;9.60;99.90
44747;DHT22;30472;49.490;10.972;2023-06-04T01:06:44;9.50;99.90
44747;DHT22;30472;49.490;10.972;2023-06-04T01:09:10;9.50;99.90
44747;DHT22;30472;49.490;10.972;2023-06-04T01:11:39;9.40;99.90
44747;DHT22;30472;49.490;10.972;2023-06-04T01:14:07;9.40;99.90
44747;DHT22;30472;49.490;10.972;2023-06-04T01:20:05;9.40;99.90
44747;DHT22;30472;49.490;10.972;2023-06-04T01:28:05;9.50;99.90
44747;DHT22;30472;49.490;10.972;2023-06-04T01:30:33;9.40;99.90
44747;DHT22;30472;49.490;10.972;2023-06-04T01:33:00;9.30;99.90
44747;DHT22;30472;49.490;10.972;2023-06-04T01:35:26;9.30;99.90
44747;DHT22;30472;49.490;10.972;2023-06-04T01:37:53;9.20;99.90
44747;DHT22;30472;49.490;10.972;2023-06-04T01:40:20;9.20;99.90
44747;DHT22;30472;49.490;10.972;2023-06-04T01:42:45;9.10;99.90
44747;DHT22;30472;49.490;10.972;2023-06-04T01:45:11;9.10;99.90
44747;DHT22;30472;49.490;10.972;2023-06-04T01:47:37;9.10;99.90
44747;DHT22;30472;49.490;10.972;2023-06-04T01:50:06;9.00;99.90
44747;DHT22;30472;49.490;10.972;2023-06-04T01:52:39;9.00;99.90
44747;DHT22;30472;49.490;10.972;2023-06-04T01:55:06;9.00;99.90
44747;DHT22;30472;49.490;10.972;2023-06-04T01:57:33;9.00;99.90
44747;DHT22;30472;49.490;10.972;2023-06-04T01:59:59;8.90;99.90
44747;DHT22;30472;49.490;10.972;2023-06-04T02:02:25;9.00;99.90
44747;DHT22;30472;49.490;10.972;2023-06-04T02:04:51;9.00;99.90
44747;DHT22;30472;49.490;10.972;2023-06-04T02:07:18;8.90;99.90
44747;DHT22;30472;49.490;10.972;2023-06-04T02:09:46;8.80;99.90
44747;DHT22;30472;49.490;10.972;2023-06-04T02:12:12;8.90;99.90
44747;DHT22;30472;49.490;10.972;2023-06-04T02:14:37;8.80;99.90
44747;DHT22;30472;49.490;10.972;2023-06-04T02:17:03;8.80;99.90
44747;DHT22;30472;49.490;10.972;2023-06-04T02:19:30;8.70;99.90
44747;DHT22;30472;49.490;10.972;2023-06-04T02:21:58;8.60;99.90
44747;DHT22;30472;49.490;10.972;2023-06-04T02:24:24;8.70;99.90
44747;DHT22;30472;49.490;10.972;2023-06-04T02:26:50;8.60;99.90
44747;DHT22;30472;49.490;10.972;2023-06-04T02:29:15;8.60;99.90
44747;DHT22;30472;49.490;10.972;2023-06-04T02:31:41;8.50;99.90
44747;DHT22;30472;49.490;10.972;2023-06-04T02:34:06;8.50;99.90
44747;DHT22;30472;49.490;10.972;2023-06-04T02:36:32;8.50;99.90
44747;DHT22;30472;49.490;10.972;2023-06-04T02:38:57;8.50;99.90
44747;DHT22;30472;49.490;10.972;2023-06-04T02:41:24;8.40;99.90
44747;DHT22;30472;49.490;10.972;2023-06-04T02:43:50;8.40;99.90
44747;DHT22;30472;49.490;10.972;2023-06-04T02:46:16;8.30;99.90
44747;DHT22;30472;49.490;10.972;2023-06-04T02:48:41;8.30;99.90
44747;DHT22;30472;49.490;10.972;2023-06-04T02:51:07;8.30;99.90
44747;DHT22;30472;49.490;10.972;2023-06-04T02:53:35;8.20;99.90
44747;DHT22;30472;49.490;10.972;2023-06-04T02:56:01;8.20;99.90
44747;DHT22;30472;49.490;10.972;2023-06-04T02:58:27;8.10;99.90
44747;DHT22;30472;49.490;10.972;2023-06-04T03:00:54;8.10;99.90
44747;DHT22;30472;49.490;10.972;2023-06-04T03:03:20;8.10;99.90
44747;DHT22;30472;49.490;10.972;2023-06-04T03:05:45;8.10;99.90
44747;DHT22;30472;49.490;10.972;2023-06-04T03:08:11;8.10;99.90
44747;DHT22;30472;49.490;10.972;2023-06-04T03:10:37;8.10;99.90
44747;DHT22;30472;49.490;10.972;2023-06-04T03:13:03;8.00;99.90
44747;DHT22;30472;49.490;10.972;2023-06-04T03:15:29;8.00;99.90
44747;DHT22;30472;49.490;10.972;2023-06-04T03:17:54;7.90;99.90
44747;DHT22;30472;49.490;10.972;2023-06-04T03:20:20;7.90;99.90
44747;DHT22;30472;49.490;10.972;2023-06-04T03:22:50;7.80;99.90
44747;DHT22;30472;49.490;10.972;2023-06-04T03:25:15;7.80;99.90
44747;DHT22;30472;49.490;10.972;2023-06-04T03:27:41;7.80;99.90
44747;DHT22;30472;49.490;10.972;2023-06-04T03:30:07;7.80;99.90
44747;DHT22;30472;49.490;10.972;2023-06-04T03:32:33;7.90;99.90
44747;DHT22;30472;49.490;10.972;2023-06-04T03:35:00;7.80;99.90
44747;DHT22;30472;49.490;10.972;2023-06-04T03:37:25;7.80;99.90
44747;DHT22;30472;49.490;10.972;2023-06-04T03:39:52;7.90;99.90
44747;DHT22;30472;49.490;10.972;2023-06-04T03:42:17;7.90;99.90
44747;DHT22;30472;49.490;10.972;2023-06-04T03:44:43;7.90;99.90
44747;DHT22;30472;49.490;10.972;2023-06-04T03:47:09;7.90;99.90
44747;DHT22;30472;49.490;10.972;2023-06-04T03:49:35;7.90;99.90
44747;DHT22;30472;49.490;10.972;2023-06-04T03:52:00;8.00;99.90
44747;DHT22;30472;49.490;10.972;2023-06-04T03:54:26;8.00;99.90
44747;DHT22;30472;49.490;10.972;2023-06-04T03:56:51;8.00;99.90
44747;DHT22;30472;49.490;10.972;2023-06-04T03:59:17;8.00;99.90
44747;DHT22;30472;49.490;10.972;2023-06-04T04:01:43;8.00;99.90
44747;DHT22;30472;49.490;10.972;2023-06-04T04:04:09;8.10;99.90
44747;DHT22;30472;49.490;10.972;2023-06-04T04:06:35;8.10;99.90
44747;DHT22;30472;49.490;10.972;2023-06-04T04:09:00;8.10;99.90
44747;DHT22;30472;49.490;10.972;2023-06-04T04:11:26;8.20;99.90
44747;DHT22;30472;49.490;10.972;2023-06-04T04:13:51;8.20;99.90
44747;DHT22;30472;49.490;10.972;2023-06-04T04:16:17;8.30;99.90
44747;DHT22;30472;49.490;10.972;2023-06-04T04:18:43;8.30;99.90
44747;DHT22;30472;49.490;10.972;2023-06-04T04:21:09;8.40;99.90
44747;DHT22;30472;49.490;10.972;2023-06-04T04:23:38;8.50;99.90
44747;DHT22;30472;49.490;10.972;2023-06-04T04:26:08;8.50;99.90
44747;DHT22;30472;49.490;10.972;2023-06-04T04:28:35;8.60;99.90
44747;DHT22;30472;49.490;10.972;2023-06-04T04:31:01;8.60;99.90
44747;DHT22;30472;49.490;10.972;2023-06-04T04:33:28;8.70;99.90
44747;DHT22;30472;49.490;10.972;2023-06-04T04:35:58;8.80;99.90
44747;DHT22;30472;49.490;10.972;2023-06-04T04:38:25;8.90;99.90
44747;DHT22;30472;49.490;10.972;2023-06-04T04:40:50;9.00;99.90
44747;DHT22;30472;49.490;10.972;2023-06-04T04:43:30;9.00;99.90
44747;DHT22;30472;49.490;10.972;2023-06-04T04:45:56;9.10;99.90
44747;DHT22;30472;49.490;10.972;2023-06-04T04:48:21;9.30;99.90
44747;DHT22;30472;49.490;10.972;2023-06-04T04:50:47;9.40;99.90
44747;DHT22;30472;49.490;10.972;2023-06-04T04:53:13;9.50;99.90
44747;DHT22;30472;49.490;10.972;2023-06-04T04:55:38;9.50;99.90
44747;DHT22;30472;49.490;10.972;2023-06-04T04:58:04;9.60;99.90
44747;DHT22;30472;49.490;10.972;2023-06-04T05:00:29;9.70;99.90
44747;DHT22;30472;49.490;10.972;2023-06-04T05:02:55;9.80;99.90
44747;DHT22;30472;49.490;10.972;2023-06-04T05:05:21;9.90;99.90
44747;DHT22;30472;49.490;10.972;2023-06-04T05:07:47;10.00;99.90
44747;DHT22;30472;49.490;10.972;2023-06-04T05:10:12;10.10;99.90
44747;DHT22;30472;49.490;10.972;2023-06-04T05:12:38;10.20;99.90
44747;DHT22;30472;49.490;10.972;2023-06-04T05:15:04;10.30;99.90
44747;DHT22;30472;49.490;10.972;2023-06-04T05:17:29;10.50;99.90
44747;DHT22;30472;49.490;10.972;2023-06-04T05:19:56;10.60;99.90
44747;DHT22;30472;49.490;10.972;2023-06-04T05:22:37;10.70;99.90
44747;DHT22;30472;49.490;10.972;2023-06-04T05:25:03;10.80;99.90
44747;DHT22;30472;49.490;10.972;2023-06-04T05:27:28;10.90;99.90
44747;DHT22;30472;49.490;10.972;2023-06-04T05:29:54;11.00;99.90
44747;DHT22;30472;49.490;10.972;2023-06-04T05:32:19;11.10;99.90
44747;DHT22;30472;49.490;10.972;2023-06-04T05:34:48;11.30;99.90
44747;DHT22;30472;49.490;10.972;2023-06-04T05:37:14;11.30;99.90
44747;DHT22;30472;49.490;10.972;2023-06-04T05:39:42;11.40;99.90
44747;DHT22;30472;49.490;10.972;2023-06-04T05:42:07;11.60;99.90
44747;DHT22;30472;49.490;10.972;2023-06-04T05:44:33;11.70;99.90
44747;DHT22;30472;49.490;10.972;2023-06-04T05:46:58;11.80;99.90
44747;DHT22;30472;49.490;10.972;2023-06-04T05:49:24;11.90;99.90
44747;DHT22;30472;49.490;10.972;2023-06-04T05:51:50;12.00;99.90
44747;DHT22;30472;49.490;10.972;2023-06-04T05:54:16;12.10;99.90
44747;DHT22;30472;49.490;10.972;2023-06-04T05:56:41;12.30;99.90
44747;DHT22;30472;49.490;10.972;2023-06-04T05:59:07;12.30;99.90
44747;DHT22;30472;49.490;10.972;2023-06-04T06:01:32;12.40;99.90
44747;DHT22;30472;49.490;10.972;2023-06-04T06:03:58;12.50;99.90
44747;DHT22;30472;49.490;10.972;2023-06-04T06:06:23;12.60;99.90
44747;DHT22;30472;49.490;10.972;2023-06-04T06:08:49;12.70;99.90
44747;DHT22;30472;49.490;10.972;2023-06-04T06:11:18;12.80;99.90
44747;DHT22;30472;49.490;10.972;2023-06-04T06:13:43;13.10;99.90
44747;DHT22;30472;49.490;10.972;2023-06-04T06:16:09;13.30;99.90
44747;DHT22;30472;49.490;10.972;2023-06-04T06:18:34;13.70;99.90
44747;DHT22;30472;49.490;10.972;2023-06-04T06:21:00;14.50;99.90
44747;DHT22;30472;49.490;10.972;2023-06-04T06:23:26;15.70;99.90
44747;DHT22;30472;49.490;10.972;2023-06-04T06:25:51;16.70;99.90
44747;DHT22;30472;49.490;10.972;2023-06-04T06:28:18;17.10;99.90
44747;DHT22;30472;49.490;10.972;2023-06-04T06:30:43;17.30;99.90
44747;DHT22;30472;49.490;10.972;2023-06-04T06:33:10;18.20;99.90
44747;DHT22;30472;49.490;10.972;2023-06-04T06:35:35;18.90;99.90
44747;DHT22;30472;49.490;10.972;2023-06-04T06:38:01;18.90;99.90
44747;DHT22;30472;49.490;10.972;2023-06-04T06:40:27;19.10;99.90
44747;DHT22;30472;49.490;10.972;2023-06-04T06:42:52;18.80;99.90
44747;DHT22;30472;49.490;10.972;2023-06-04T06:45:18;19.50;99.90
44747;DHT22;30472;49.490;10.972;2023-06-04T06:47:44;19.70;99.90
44747;DHT22;30472;49.490;10.972;2023-06-04T06:50:10;19.90;99.90
44747;DHT22;30472;49.490;10.972;2023-06-04T06:52:36;20.60;99.90
44747;DHT22;30472;49.490;10.972;2023-06-04T06:55:04;20.60;99.90
44747;DHT22;30472;49.490;10.972;2023-06-04T06:57:30;21.10;99.90
44747;DHT22;30472;49.490;10.972;2023-06-04T06:59:56;21.60;99.90
44747;DHT22;30472;49.490;10.972;2023-06-04T07:02:21;21.20;99.90
44747;DHT22;30472;49.490;10.972;2023-06-04T07:04:47;21.20;99.90
44747;DHT22;30472;49.490;10.972;2023-06-04T07:07:13;21.70;99.90
44747;DHT22;30472;49.490;10.972;2023-06-04T07:09:38;22.40;99.90
44747;DHT22;30472;49.490;10.972;2023-06-04T07:12:05;22.80;99.90
44747;DHT22;30472;49.490;10.972;2023-06-04T07:14:31;22.50;99.90
44747;DHT22;30472;49.490;10.972;2023-06-04T07:16:56;22.10;99.90
44747;DHT22;30472;49.490;10.972;2023-06-04T07:19:22;22.90;99.90
44747;DHT22;30472;49.490;10.972;2023-06-04T07:21:47;23.40;99.90
44747;DHT22;30472;49.490;10.972;2023-06-04T07:24:13;22.30;99.90
44747;DHT22;30472;49.490;10.972;2023-06-04T07:26:39;23.10;99.90
44747;DHT22;30472;49.490;10.972;2023-06-04T07:29:04;23.40;99.90
44747;DHT22;30472;49.490;10.972;2023-06-04T07:31:30;23.50;99.90
44747;DHT22;30472;49.490;10.972;2023-06-04T07:33:56;24.20;99.90
44747;DHT22;30472;49.490;10.972;2023-06-04T07:36:21;24.20;99.90
44747;DHT22;30472;49.490;10.972;2023-06-04T07:38:48;25.10;99.60
44747;DHT22;30472;49.490;10.972;2023-06-04T07:41:13;24.60;98.60
44747;DHT22;30472;49.490;10.972;2023-06-04T07:43:39;24.50;99.90
44747;DHT22;30472;49.490;10.972;2023-06-04T07:46:05;24.70;98.30
44747;DHT22;30472;49.490;10.972;2023-06-04T07:48:31;25.10;98.70
44747;DHT22;30472;49.490;10.972;2023-06-04T07:50:58;25.30;97.70
44747;DHT22;30472;49.490;10.972;2023-06-04T07:53:23;26.10;97.50
44747;DHT22;30472;49.490;10.972;2023-06-04T07:55:49;25.90;97.80
44747;DHT22;30472;49.490;10.972;2023-06-04T07:58:15;25.00;97.60
44747;DHT22;30472;49.490;10.972;2023-06-04T08:00:41;24.80;97.40
44747;DHT22;30472;49.490;10.972;2023-06-04T08:03:06;25.30;98.30
44747;DHT22;30472;49.490;10.972;2023-06-04T08:05:32;25.70;96.80
44747;DHT22;30472;49.490;10.972;2023-06-04T08:07:59;25.90;96.60
44747;DHT22;30472;49.490;10.972;2023-06-04T08:10:24;26.20;96.90
44747;DHT22;30472;49.490;10.972;2023-06-04T08:12:50;26.90;97.30
44747;DHT22;30472;49.490;10.972;2023-06-04T08:15:15;27.10;95.00
44747;DHT22;30472;49.490;10.972;2023-06-04T08:17:41;27.30;95.50
44747;DHT22;30472;49.490;10.972;2023-06-04T08:20:07;27.00;94.80
44747;DHT22;30472;49.490;10.972;2023-06-04T08:22:34;26.60;94.60
44747;DHT22;30472;49.490;10.972;2023-06-04T08:25:00;27.10;94.80
44747;DHT22;30472;49.490;10.972;2023-06-04T08:27:25;27.40;94.40
44747;DHT22;30472;49.490;10.972;2023-06-04T08:29:51;26.40;93.50
44747;DHT22;30472;49.490;10.972;2023-06-04T08:32:18;26.40;95.40
44747;DHT22;30472;49.490;10.972;2023-06-04T08:34:43;26.20;93.50
44747;DHT22;30472;49.490;10.972;2023-06-04T08:37:09;26.50;95.30
44747;DHT22;30472;49.490;10.972;2023-06-04T08:39:36;26.60;94.00
44747;DHT22;30472;49.490;10.972;2023-06-04T08:42:05;27.20;93.20
44747;DHT22;30472;49.490;10.972;2023-06-04T08:44:33;27.40;92.50
44747;DHT22;30472;49.490;10.972;2023-06-04T08:47:05;27.40;91.90
44747;DHT22;30472;49.490;10.972;2023-06-04T08:49:34;27.60;91.30
44747;DHT22;30472;49.490;10.972;2023-06-04T08:52:03;27.60;91.60
44747;DHT22;30472;49.490;10.972;2023-06-04T08:54:30;28.00;91.70
44747;DHT22;30472;49.490;10.972;2023-06-04T08:56:57;27.80;91.00
44747;DHT22;30472;49.490;10.972;2023-06-04T08:59:23;26.40;91.00
44747;DHT22;30472;49.490;10.972;2023-06-04T09:01:52;26.10;91.30
44747;DHT22;30472;49.490;10.972;2023-06-04T09:04:18;26.80;91.70
44747;DHT22;30472;49.490;10.972;2023-06-04T09:06:44;27.10;92.80
44747;DHT22;30472;49.490;10.972;2023-06-04T09:09:11;27.10;92.00
44747;DHT22;30472;49.490;10.972;2023-06-04T09:11:52;27.10;90.80
44747;DHT22;30472;49.490;10.972;2023-06-04T09:14:18;27.10;91.10
44747;DHT22;30472;49.490;10.972;2023-06-04T09:16:45;27.70;90.90
44747;DHT22;30472;49.490;10.972;2023-06-04T09:19:11;28.80;90.20
44747;DHT22;30472;49.490;10.972;2023-06-04T09:22:06;28.40;90.10
44747;DHT22;30472;49.490;10.972;2023-06-04T09:24:45;28.00;89.10
44747;DHT22;30472;49.490;10.972;2023-06-04T09:27:16;27.90;87.00
44747;DHT22;30472;49.490;10.972;2023-06-04T09:29:58;27.90;89.90
44747;DHT22;30472;49.490;10.972;2023-06-04T09:32:29;28.20;88.30
44747;DHT22;30472;49.490;10.972;2023-06-04T09:35:14;27.90;89.50
44747;DHT22;30472;49.490;10.972;2023-06-04T09:37:41;28.20;89.60
44747;DHT22;30472;49.490;10.972;2023-06-04T09:40:08;28.20;91.50
44747;DHT22;30472;49.490;10.972;2023-06-04T09:42:44;27.70;86.90
44747;DHT22;30472;49.490;10.972;2023-06-04T09:45:10;27.30;86.80
44747;DHT22;30472;49.490;10.972;2023-06-04T09:47:43;27.00;89.80
44747;DHT22;30472;49.490;10.972;2023-06-04T09:50:13;26.90;87.70
44747;DHT22;30472;49.490;10.972;2023-06-04T09:52:39;26.30;88.70
44747;DHT22;30472;49.490;10.972;2023-06-04T09:55:25;26.90;89.40
44747;DHT22;30472;49.490;10.972;2023-06-04T09:57:52;27.00;89.80
44747;DHT22;30472;49.490;10.972;2023-06-04T10:00:19;27.80;88.50
44747;DHT22;30472;49.490;10.972;2023-06-04T10:02:46;27.50;87.30
44747;DHT22;30472;49.490;10.972;2023-06-04T10:05:13;26.70;89.20
44747;DHT22;30472;49.490;10.972;2023-06-04T10:07:44;26.80;90.00
44747;DHT22;30472;49.490;10.972;2023-06-04T10:10:21;26.90;87.10
44747;DHT22;30472;49.490;10.972;2023-06-04T10:12:59;26.70;88.00
44747;DHT22;30472;49.490;10.972;2023-06-04T10:15:26;25.90;86.40
44747;DHT22;30472;49.490;10.972;2023-06-04T10:17:52;26.20;87.90
44747;DHT22;30472;49.490;10.972;2023-06-04T10:20:18;26.60;87.50
44747;DHT22;30472;49.490;10.972;2023-06-04T10:22:46;26.40;90.20
44747;DHT22;30472;49.490;10.972;2023-06-04T10:25:13;26.90;87.50
44747;DHT22;30472;49.490;10.972;2023-06-04T10:27:39;26.70;87.70
44747;DHT22;30472;49.490;10.972;2023-06-04T10:30:05;27.00;88.10
44747;DHT22;30472;49.490;10.972;2023-06-04T10:32:31;26.90;89.70
44747;DHT22;30472;49.490;10.972;2023-06-04T10:34:57;27.00;87.90
44747;DHT22;30472;49.490;10.972;2023-06-04T10:37:24;26.90;87.00
44747;DHT22;30472;49.490;10.972;2023-06-04T10:39:54;27.10;89.00
44747;DHT22;30472;49.490;10.972;2023-06-04T10:42:21;26.90;88.70
44747;DHT22;30472;49.490;10.972;2023-06-04T10:44:49;26.50;86.40
44747;DHT22;30472;49.490;10.972;2023-06-04T10:47:23;26.80;87.70
44747;DHT22;30472;49.490;10.972;2023-06-04T10:49:54;26.80;89.00
44747;DHT22;30472;49.490;10.972;2023-06-04T10:52:20;26.90;86.80
44747;DHT22;30472;49.490;10.972;2023-06-04T10:54:47;27.00;87.70
44747;DHT22;30472;49.490;10.972;2023-06-04T10:57:17;26.60;87.50
44747;DHT22;30472;49.490;10.972;2023-06-04T10:59:56;27.20;87.50
44747;DHT22;30472;49.490;10.972;2023-06-04T11:02:22;27.40;88.70
44747;DHT22;30472;49.490;10.972;2023-06-04T11:05:04;27.70;85.20
44747;DHT22;30472;49.490;10.972;2023-06-04T11:07:48;27.50;86.40
44747;DHT22;30472;49.490;10.972;2023-06-04T11:10:16;27.10;86.40
44747;DHT22;30472;49.490;10.972;2023-06-04T11:12:46;26.80;84.30
44747;DHT22;30472;49.490;10.972;2023-06-04T11:15:13;27.10;88.00
44747;DHT22;30472;49.490;10.972;2023-06-04T11:20:17;26.70;84.60
44747;DHT22;30472;49.490;10.972;2023-06-04T11:22:50;27.20;84.50
44747;DHT22;30472;49.490;10.972;2023-06-04T11:25:17;26.90;82.90
44747;DHT22;30472;49.490;10.972;2023-06-04T11:27:42;27.00;82.70
44747;DHT22;30472;49.490;10.972;2023-06-04T11:30:08;26.90;84.50
44747;DHT22;30472;49.490;10.972;2023-06-04T11:32:34;26.90;85.40
44747;DHT22;30472;49.490;10.972;2023-06-04T11:35:04;27.00;83.10
44747;DHT22;30472;49.490;10.972;2023-06-04T11:37:33;27.30;85.60
44747;DHT22;30472;49.490;10.972;2023-06-04T11:39:59;28.20;85.00
44747;DHT22;30472;49.490;10.972;2023-06-04T11:42:29;27.50;83.40
44747;DHT22;30472;49.490;10.972;2023-06-04T11:44:56;27.10;82.50
44747;DHT22;30472;49.490;10.972;2023-06-04T11:47:21;26.50;82.20
44747;DHT22;30472;49.490;10.972;2023-06-04T11:49:47;26.30;84.20
44747;DHT22;30472;49.490;10.972;2023-06-04T11:52:14;26.80;83.80
44747;DHT22;30472;49.490;10.972;2023-06-04T11:54:39;25.90;82.40
44747;DHT22;30472;49.490;10.972;2023-06-04T11:57:06;26.10;83.50
44747;DHT22;30472;49.490;10.972;2023-06-04T11:59:32;26.00;83.30
44747;DHT22;30472;49.490;10.972;2023-06-04T12:01:58;26.70;82.50
44747;DHT22;30472;49.490;10.972;2023-06-04T12:04:23;26.90;82.70
44747;DHT22;30472;49.490;10.972;2023-06-04T12:06:59;27.00;82.90
44747;DHT22;30472;49.490;10.972;2023-06-04T12:09:29;26.80;83.40
44747;DHT22;30472;49.490;10.972;2023-06-04T12:12:04;26.70;81.60
44747;DHT22;30472;49.490;10.972;2023-06-04T12:14:30;27.10;81.20
44747;DHT22;30472;49.490;10.972;2023-06-04T12:17:05;27.60;81.90
44747;DHT22;30472;49.490;10.972;2023-06-04T12:19:32;28.20;78.20
44747;DHT22;30472;49.490;10.972;2023-06-04T12:22:03;28.50;78.80
44747;DHT22;30472;49.490;10.972;2023-06-04T12:24:31;28.90;80.10
44747;DHT22;30472;49.490;10.972;2023-06-04T12:27:02;27.20;80.80
44747;DHT22;30472;49.490;10.972;2023-06-04T12:29:28;27.00;79.00
44747;DHT22;30472;49.490;10.972;2023-06-04T12:32:05;27.10;82.40
44747;DHT22;30472;49.490;10.972;2023-06-04T12:34:31;26.80;79.00
44747;DHT22;30472;49.490;10.972;2023-06-04T12:36:57;27.10;81.00
44747;DHT22;30472;49.490;10.972;2023-06-04T12:39:23;27.00;81.60
44747;DHT22;30472;49.490;10.972;2023-06-04T12:41:48;26.90;82.00
44747;DHT22;30472;49.490;10.972;2023-06-04T12:44:14;26.40;80.90
44747;DHT22;30472;49.490;10.972;2023-06-04T12:46:39;26.20;80.80
44747;DHT22;30472;49.490;10.972;2023-06-04T12:49:05;26.20;84.00
44747;DHT22;30472;49.490;10.972;2023-06-04T12:51:31;26.40;82.30
44747;DHT22;30472;49.490;10.972;2023-06-04T12:53:57;26.40;80.20
44747;DHT22;30472;49.490;10.972;2023-06-04T12:56:23;25.90;79.40
44747;DHT22;30472;49.490;10.972;2023-06-04T12:58:49;25.90;79.50
44747;DHT22;30472;49.490;10.972;2023-06-04T13:01:15;25.90;81.80
44747;DHT22;30472;49.490;10.972;2023-06-04T13:03:40;25.80;79.90
44747;DHT22;30472;49.490;10.972;2023-06-04T13:06:06;25.90;81.50
44747;DHT22;30472;49.490;10.972;2023-06-04T13:08:33;25.90;82.50
44747;DHT22;30472;49.490;10.972;2023-06-04T13:10:58;25.80;79.20
44747;DHT22;30472;49.490;10.972;2023-06-04T13:13:24;25.60;81.70
44747;DHT22;30472;49.490;10.972;2023-06-04T13:15:50;25.50;81.30
44747;DHT22;30472;49.490;10.972;2023-06-04T13:18:15;25.80;79.40
44747;DHT22;30472;49.490;10.972;2023-06-04T13:20:41;25.90;80.30
44747;DHT22;30472;49.490;10.972;2023-06-04T13:23:07;25.80;80.00
44747;DHT22;30472;49.490;10.972;2023-06-04T13:25:33;25.80;79.70
44747;DHT22;30472;49.490;10.972;2023-06-04T13:28:00;25.90;79.70
44747;DHT22;30472;49.490;10.972;2023-06-04T13:30:25;25.90;80.10
44747;DHT22;30472;49.490;10.972;2023-06-04T13:32:52;25.50;81.30
44747;DHT22;30472;49.490;10.972;2023-06-04T13:35:18;25.40;79.40
44747;DHT22;30472;49.490;10.972;2023-06-04T13:37:43;25.40;80.50
44747;DHT22;30472;49.490;10.972;2023-06-04T13:40:09;25.60;80.80
44747;DHT22;30472;49.490;10.972;2023-06-04T13:42:35;25.60;80.80
44747;DHT22;30472;49.490;10.972;2023-06-04T13:45:01;25.70;80.80
44747;DHT22;30472;49.490;10.972;2023-06-04T13:47:26;25.60;80.40
44747;DHT22;30472;49.490;10.972;2023-06-04T13:49:52;25.60;80.10
44747;DHT22;30472;49.490;10.972;2023-06-04T13:52:17;25.60;81.70
44747;DHT22;30472;49.490;10.972;2023-06-04T13:54:43;25.90;80.70
44747;DHT22;30472;49.490;10.972;2023-06-04T13:57:09;26.10;79.30
44747;DHT22;30472;49.490;10.972;2023-06-04T13:59:38;26.00;79.10
44747;DHT22;30472;49.490;10.972;2023-06-04T14:02:03;25.80;79.80
44747;DHT22;30472;49.490;10.972;2023-06-04T14:04:29;26.00;78.70
44747;DHT22;30472;49.490;10.972;2023-06-04T14:06:55;26.00;80.60
44747;DHT22;30472;49.490;10.972;2023-06-04T14:09:21;25.60;79.20
44747;DHT22;30472;49.490;10.972;2023-06-04T14:11:46;25.70;79.70
44747;DHT22;30472;49.490;10.972;2023-06-04T14:14:22;25.60;78.80
44747;DHT22;30472;49.490;10.972;2023-06-04T14:16:48;25.40;79.80
44747;DHT22;30472;49.490;10.972;2023-06-04T14:19:14;25.40;79.20
44747;DHT22;30472;49.490;10.972;2023-06-04T14:21:43;25.40;81.20
44747;DHT22;30472;49.490;10.972;2023-06-04T14:24:10;25.60;80.40
44747;DHT22;30472;49.490;10.972;2023-06-04T14:26:35;25.60;78.20
44747;DHT22;30472;49.490;10.972;2023-06-04T14:29:02;25.60;80.30
44747;DHT22;30472;49.490;10.972;2023-06-04T14:31:27;25.30;79.70
44747;DHT22;30472;49.490;10.972;2023-06-04T14:33:53;25.30;80.20
44747;DHT22;30472;49.490;10.972;2023-06-04T14:36:19;25.30;78.50
44747;DHT22;30472;49.490;10.972;2023-06-04T14:38:44;25.30;78.70
44747;DHT22;30472;49.490;10.972;2023-06-04T14:41:11;25.40;80.30
44747;DHT22;30472;49.490;10.972;2023-06-04T14:43:37;25.50;80.10
44747;DHT22;30472;49.490;10.972;2023-06-04T14:46:02;25.70;76.70
44747;DHT22;30472;49.490;10.972;2023-06-04T14:48:29;25.90;77.70
44747;DHT22;30472;49.490;10.972;2023-06-04T14:50:55;26.10;75.20
44747;DHT22;30472;49.490;10.972;2023-06-04T14:53:21;25.90;77.00
44747;DHT22;30472;49.490;10.972;2023-06-04T14:55:47;25.80;78.80
44747;DHT22;30472;49.490;10.972;2023-06-04T14:58:12;25.60;78.20
44747;DHT22;30472;49.490;10.972;2023-06-04T15:00:38;25.70;79.60
44747;DHT22;30472;49.490;10.972;2023-06-04T15:03:04;26.00;80.20
44747;DHT22;30472;49.490;10.972;2023-06-04T15:05:33;26.00;78.60
44747;DHT22;30472;49.490;10.972;2023-06-04T15:07:58;25.90;79.10
44747;DHT22;30472;49.490;10.972;2023-06-04T15:10:27;26.00;78.50
44747;DHT22;30472;49.490;10.972;2023-06-04T15:12:52;25.60;79.40
44747;DHT22;30472;49.490;10.972;2023-06-04T15:15:18;25.30;80.50
44747;DHT22;30472;49.490;10.972;2023-06-04T15:17:44;25.30;80.10
44747;DHT22;30472;49.490;10.972;2023-06-04T15:20:09;25.00;78.80
44747;DHT22;30472;49.490;10.972;2023-06-04T15:22:35;25.00;80.30
44747;DHT22;30472;49.490;10.972;2023-06-04T15:25:01;25.20;81.20
44747;DHT22;30472;49.490;10.972;2023-06-04T15:27:26;25.20;80.80
44747;DHT22;30472;49.490;10.972;2023-06-04T15:29:52;25.40;79.70
44747;DHT22;30472;49.490;10.972;2023-06-04T15:32:17;25.60;79.20